sensor_id;sensor_type;location;lat;lon;timestamp;temperature;humidity
19060;DHT22;9663;48.996;8.334;2023-04-19T00:00:42;14.20;54.20
19060;DHT22;9663;48.996;8.334;2023-04-19T00:03:09;14.30;54.30
19060;DHT22;9663;48.996;8.334;2023-04-19T00:05:35;14.20;54.30
19060;DHT22;9663;48.996;8.334;2023-04-19T00:08:03;14.20;54.30
19060;DHT22;9663;48.996;8.334;2023-04-19T00:10:30;14.20;54.30
19060;DHT22;9663;48.996;8.334;2023-04-19T00:12:55;14.20;54.30
19060;DHT22;9663;48.996;8.334;2023-04-19T00:15:21;14.10;54.30
19060;DHT22;9663;48.996;8.334;2023-04-19T00:17:47;14.10;54.40
19060;DHT22;9663;48.996;8.334;2023-04-19T00:20:12;14.10;54.40
19060;DHT22;9663;48.996;8.334;2023-04-19T00:22:39;14.10;54.40
19060;DHT22;9663;48.996;8.334;2023-04-19T00:25:05;14.10;54.50
19060;DHT22;9663;48.996;8.334;2023-04-19T00:27:31;14.40;54.70
19060;DHT22;9663;48.996;8.334;2023-04-19T00:29:57;14.10;54.60
19060;DHT22;9663;48.996;8.334;2023-04-19T00:32:23;14.10;54.60
19060;DHT22;9663;48.996;8.334;2023-04-19T00:34:49;14.00;54.60
19060;DHT22;9663;48.996;8.334;2023-04-19T00:37:15;14.00;54.60
19060;DHT22;9663;48.996;8.334;2023-04-19T00:39:41;13.90;54.60
19060;DHT22;9663;48.996;8.334;2023-04-19T00:42:06;13.90;54.60
19060;DHT22;9663;48.996;8.334;2023-04-19T00:44:32;13.90;54.60
19060;DHT22;9663;48.996;8.334;2023-04-19T00:46:59;13.90;54.70
19060;DHT22;9663;48.996;8.334;2023-04-19T00:49:26;13.90;54.80
19060;DHT22;9663;48.996;8.334;2023-04-19T00:51:52;13.20;54.50
19060;DHT22;9663;48.996;8.334;2023-04-19T00:54:18;13.80;54.80
19060;DHT22;9663;48.996;8.334;2023-04-19T00:56:45;14.10;54.90
19060;DHT22;9663;48.996;8.334;2023-04-19T00:59:11;13.80;54.80
19060;DHT22;9663;48.996;8.334;2023-04-19T01:01:39;13.80;54.90
19060;DHT22;9663;48.996;8.334;2023-04-19T01:04:06;13.80;54.90
19060;DHT22;9663;48.996;8.334;2023-04-19T01:06:33;13.80;54.90
19060;DHT22;9663;48.996;8.334;2023-04-19T01:09:00;13.80;55.00
19060;DHT22;9663;48.996;8.334;2023-04-19T01:11:26;13.80;55.00
19060;DHT22;9663;48.996;8.334;2023-04-19T01:13:54;13.80;55.00
19060;DHT22;9663;48.996;8.334;2023-04-19T01:16:20;13.70;55.00
19060;DHT22;9663;48.996;8.334;2023-04-19T01:18:46;13.70;55.00
19060;DHT22;9663;48.996;8.334;2023-04-19T01:21:12;13.80;55.00
19060;DHT22;9663;48.996;8.334;2023-04-19T01:23:38;13.70;55.00
19060;DHT22;9663;48.996;8.334;2023-04-19T01:26:04;13.70;55.10
19060;DHT22;9663;48.996;8.334;2023-04-19T01:28:31;13.70;55.20
19060;DHT22;9663;48.996;8.334;2023-04-19T01:30:56;12.30;54.40
19060;DHT22;9663;48.996;8.334;2023-04-19T01:33:22;13.60;55.10
19060;DHT22;9663;48.996;8.334;2023-04-19T01:35:48;13.70;55.20
19060;DHT22;9663;48.996;8.334;2023-04-19T01:38:17;13.60;55.20
19060;DHT22;9663;48.996;8.334;2023-04-19T01:40:43;13.60;55.30
19060;DHT22;9663;48.996;8.334;2023-04-19T01:43:12;13.60;55.30
19060;DHT22;9663;48.996;8.334;2023-04-19T01:45:39;13.70;55.40
19060;DHT22;9663;48.996;8.334;2023-04-19T01:48:05;13.60;55.30
19060;DHT22;9663;48.996;8.334;2023-04-19T01:50:31;12.90;55.00
19060;DHT22;9663;48.996;8.334;2023-04-19T01:52:57;13.60;55.30
19060;DHT22;9663;48.996;8.334;2023-04-19T01:55:23;14.00;55.60
19060;DHT22;9663;48.996;8.334;2023-04-19T01:57:49;13.50;55.40
19060;DHT22;9663;48.996;8.334;2023-04-19T02:00:17;15.50;56.40
19060;DHT22;9663;48.996;8.334;2023-04-19T02:02:43;13.50;55.40
19060;DHT22;9663;48.996;8.334;2023-04-19T02:05:09;13.50;55.40
19060;DHT22;9663;48.996;8.334;2023-04-19T02:07:36;13.50;55.40
19060;DHT22;9663;48.996;8.334;2023-04-19T02:10:02;13.50;55.40
19060;DHT22;9663;48.996;8.334;2023-04-19T02:12:30;13.50;55.50
19060;DHT22;9663;48.996;8.334;2023-04-19T02:15:00;13.50;55.50
19060;DHT22;9663;48.996;8.334;2023-04-19T02:17:28;13.50;55.60
19060;DHT22;9663;48.996;8.334;2023-04-19T02:19:54;13.50;55.60
19060;DHT22;9663;48.996;8.334;2023-04-19T02:22:20;13.40;55.50
19060;DHT22;9663;48.996;8.334;2023-04-19T02:24:48;13.50;55.60
19060;DHT22;9663;48.996;8.334;2023-04-19T02:27:14;14.90;56.30
19060;DHT22;9663;48.996;8.334;2023-04-19T02:29:40;13.40;55.60
19060;DHT22;9663;48.996;8.334;2023-04-19T02:32:06;13.40;55.60
19060;DHT22;9663;48.996;8.334;2023-04-19T02:34:32;13.10;55.40
19060;DHT22;9663;48.996;8.334;2023-04-19T02:36:59;13.40;55.60
19060;DHT22;9663;48.996;8.334;2023-04-19T02:39:25;13.40;56.30
19060;DHT22;9663;48.996;8.334;2023-04-19T02:41:50;12.20;55.00
19060;DHT22;9663;48.996;8.334;2023-04-19T02:44:16;13.50;55.70
19060;DHT22;9663;48.996;8.334;2023-04-19T02:46:50;13.90;55.90
19060;DHT22;9663;48.996;8.334;2023-04-19T02:49:17;13.40;55.90
19060;DHT22;9663;48.996;8.334;2023-04-19T02:51:44;13.50;55.90
19060;DHT22;9663;48.996;8.334;2023-04-19T02:54:11;13.40;55.80
19060;DHT22;9663;48.996;8.334;2023-04-19T02:56:37;13.40;55.80
19060;DHT22;9663;48.996;8.334;2023-04-19T02:59:03;13.40;55.80
19060;DHT22;9663;48.996;8.334;2023-04-19T03:01:29;13.40;55.90
19060;DHT22;9663;48.996;8.334;2023-04-19T03:03:56;13.40;55.80
19060;DHT22;9663;48.996;8.334;2023-04-19T03:06:22;13.40;55.80
19060;DHT22;9663;48.996;8.334;2023-04-19T03:08:48;13.40;55.80
19060;DHT22;9663;48.996;8.334;2023-04-19T03:11:15;13.40;55.90
19060;DHT22;9663;48.996;8.334;2023-04-19T03:13:41;13.30;55.90
19060;DHT22;9663;48.996;8.334;2023-04-19T03:16:07;13.30;56.50
19060;DHT22;9663;48.996;8.334;2023-04-19T03:18:34;13.40;55.90
19060;DHT22;9663;48.996;8.334;2023-04-19T03:21:00;13.40;56.00
19060;DHT22;9663;48.996;8.334;2023-04-19T03:23:26;13.30;55.90
19060;DHT22;9663;48.996;8.334;2023-04-19T03:25:52;13.40;56.10
19060;DHT22;9663;48.996;8.334;2023-04-19T03:28:18;13.40;56.10
19060;DHT22;9663;48.996;8.334;2023-04-19T03:30:43;13.40;56.10
19060;DHT22;9663;48.996;8.334;2023-04-19T03:33:10;14.60;56.70
19060;DHT22;9663;48.996;8.334;2023-04-19T03:35:35;13.40;56.10
19060;DHT22;9663;48.996;8.334;2023-04-19T03:38:01;13.40;56.10
19060;DHT22;9663;48.996;8.334;2023-04-19T03:40:27;13.30;56.00
19060;DHT22;9663;48.996;8.334;2023-04-19T03:42:52;13.30;56.00
19060;DHT22;9663;48.996;8.334;2023-04-19T03:45:18;13.30;56.00
19060;DHT22;9663;48.996;8.334;2023-04-19T03:47:44;13.30;56.00
19060;DHT22;9663;48.996;8.334;2023-04-19T03:50:10;13.20;56.00
19060;DHT22;9663;48.996;8.334;2023-04-19T03:52:35;13.30;56.10
19060;DHT22;9663;48.996;8.334;2023-04-19T03:55:01;13.30;56.10
19060;DHT22;9663;48.996;8.334;2023-04-19T03:57:27;13.00;56.00
19060;DHT22;9663;48.996;8.334;2023-04-19T03:59:52;13.30;56.10
19060;DHT22;9663;48.996;8.334;2023-04-19T04:02:18;13.20;56.10
19060;DHT22;9663;48.996;8.334;2023-04-19T04:04:44;13.30;56.30
19060;DHT22;9663;48.996;8.334;2023-04-19T04:07:09;13.30;56.20
19060;DHT22;9663;48.996;8.334;2023-04-19T04:09:36;13.20;56.20
19060;DHT22;9663;48.996;8.334;2023-04-19T04:12:01;12.50;55.90
19060;DHT22;9663;48.996;8.334;2023-04-19T04:14:27;13.00;56.00
19060;DHT22;9663;48.996;8.334;2023-04-19T04:16:53;13.20;56.30
19060;DHT22;9663;48.996;8.334;2023-04-19T04:19:18;13.10;56.20
19060;DHT22;9663;48.996;8.334;2023-04-19T04:21:46;13.00;56.30
19060;DHT22;9663;48.996;8.334;2023-04-19T04:24:13;13.20;56.10
19060;DHT22;9663;48.996;8.334;2023-04-19T04:26:39;12.60;56.00
19060;DHT22;9663;48.996;8.334;2023-04-19T04:29:05;13.20;56.40
19060;DHT22;9663;48.996;8.334;2023-04-19T04:31:30;13.20;56.40
19060;DHT22;9663;48.996;8.334;2023-04-19T04:33:56;13.20;56.40
19060;DHT22;9663;48.996;8.334;2023-04-19T04:36:22;13.10;56.30
19060;DHT22;9663;48.996;8.334;2023-04-19T04:38:48;13.10;56.40
19060;DHT22;9663;48.996;8.334;2023-04-19T04:41:14;11.80;55.70
19060;DHT22;9663;48.996;8.334;2023-04-19T04:43:41;12.50;56.10
19060;DHT22;9663;48.996;8.334;2023-04-19T04:46:07;13.20;56.50
19060;DHT22;9663;48.996;8.334;2023-04-19T04:48:33;13.20;56.50
19060;DHT22;9663;48.996;8.334;2023-04-19T04:50:59;13.10;56.40
19060;DHT22;9663;48.996;8.334;2023-04-19T04:53:25;13.10;56.40
19060;DHT22;9663;48.996;8.334;2023-04-19T04:55:54;12.60;56.20
19060;DHT22;9663;48.996;8.334;2023-04-19T04:58:20;13.20;56.60
19060;DHT22;9663;48.996;8.334;2023-04-19T05:00:46;13.20;56.50
19060;DHT22;9663;48.996;8.334;2023-04-19T05:03:13;13.20;56.50
19060;DHT22;9663;48.996;8.334;2023-04-19T05:05:39;13.20;56.50
19060;DHT22;9663;48.996;8.334;2023-04-19T05:08:05;13.20;56.50
19060;DHT22;9663;48.996;8.334;2023-04-19T05:10:31;13.00;56.40
19060;DHT22;9663;48.996;8.334;2023-04-19T05:12:56;13.30;56.60
19060;DHT22;9663;48.996;8.334;2023-04-19T05:15:22;12.70;56.30
19060;DHT22;9663;48.996;8.334;2023-04-19T05:17:48;13.30;56.50
19060;DHT22;9663;48.996;8.334;2023-04-19T05:20:13;12.10;55.90
19060;DHT22;9663;48.996;8.334;2023-04-19T05:22:39;13.30;56.60
19060;DHT22;9663;48.996;8.334;2023-04-19T05:25:05;13.30;56.50
19060;DHT22;9663;48.996;8.334;2023-04-19T05:27:31;13.40;56.60
19060;DHT22;9663;48.996;8.334;2023-04-19T05:29:57;12.50;56.00
19060;DHT22;9663;48.996;8.334;2023-04-19T05:32:23;13.70;56.80
19060;DHT22;9663;48.996;8.334;2023-04-19T05:34:48;13.60;56.40
19060;DHT22;9663;48.996;8.334;2023-04-19T05:37:14;13.50;56.70
19060;DHT22;9663;48.996;8.334;2023-04-19T05:39:39;13.50;56.60
19060;DHT22;9663;48.996;8.334;2023-04-19T05:42:05;13.60;56.60
19060;DHT22;9663;48.996;8.334;2023-04-19T05:44:31;13.60;56.60
19060;DHT22;9663;48.996;8.334;2023-04-19T05:46:57;12.90;56.10
19060;DHT22;9663;48.996;8.334;2023-04-19T05:49:22;13.70;56.50
19060;DHT22;9663;48.996;8.334;2023-04-19T05:51:48;13.60;56.40
19060;DHT22;9663;48.996;8.334;2023-04-19T05:54:14;13.70;56.40
19060;DHT22;9663;48.996;8.334;2023-04-19T05:56:41;13.70;56.40
19060;DHT22;9663;48.996;8.334;2023-04-19T05:59:06;13.70;56.40
19060;DHT22;9663;48.996;8.334;2023-04-19T06:01:32;13.80;56.50
19060;DHT22;9663;48.996;8.334;2023-04-19T06:03:59;13.70;56.40
19060;DHT22;9663;48.996;8.334;2023-04-19T06:06:25;15.20;57.10
19060;DHT22;9663;48.996;8.334;2023-04-19T06:08:51;13.90;56.40
19060;DHT22;9663;48.996;8.334;2023-04-19T06:11:17;13.90;56.40
19060;DHT22;9663;48.996;8.334;2023-04-19T06:13:42;13.90;56.40
19060;DHT22;9663;48.996;8.334;2023-04-19T06:16:09;13.80;56.20
19060;DHT22;9663;48.996;8.334;2023-04-19T06:18:35;14.00;56.00
19060;DHT22;9663;48.996;8.334;2023-04-19T06:21:00;14.00;56.40
19060;DHT22;9663;48.996;8.334;2023-04-19T06:23:26;14.00;56.40
19060;DHT22;9663;48.996;8.334;2023-04-19T06:25:52;14.10;56.40
19060;DHT22;9663;48.996;8.334;2023-04-19T06:28:17;13.20;55.90
19060;DHT22;9663;48.996;8.334;2023-04-19T06:30:44;14.10;56.30
19060;DHT22;9663;48.996;8.334;2023-04-19T06:33:10;14.30;56.30
19060;DHT22;9663;48.996;8.334;2023-04-19T06:35:35;14.30;56.30
19060;DHT22;9663;48.996;8.334;2023-04-19T06:38:01;14.30;56.30
19060;DHT22;9663;48.996;8.334;2023-04-19T06:40:27;14.50;56.40
19060;DHT22;9663;48.996;8.334;2023-04-19T06:42:54;14.60;56.30
19060;DHT22;9663;48.996;8.334;2023-04-19T06:45:20;14.60;56.20
19060;DHT22;9663;48.996;8.334;2023-04-19T06:47:46;14.70;56.10
19060;DHT22;9663;48.996;8.334;2023-04-19T06:50:12;14.80;56.20
19060;DHT22;9663;48.996;8.334;2023-04-19T06:52:38;14.80;56.10
19060;DHT22;9663;48.996;8.334;2023-04-19T06:55:06;13.80;55.40
19060;DHT22;9663;48.996;8.334;2023-04-19T06:57:33;15.20;55.90
19060;DHT22;9663;48.996;8.334;2023-04-19T07:00:00;15.60;56.00
19060;DHT22;9663;48.996;8.334;2023-04-19T07:02:25;16.30;56.20
19060;DHT22;9663;48.996;8.334;2023-04-19T07:05:00;15.50;55.60
19060;DHT22;9663;48.996;8.334;2023-04-19T07:07:26;15.50;55.40
19060;DHT22;9663;48.996;8.334;2023-04-19T07:09:52;15.60;55.10
19060;DHT22;9663;48.996;8.334;2023-04-19T07:12:18;15.60;55.10
19060;DHT22;9663;48.996;8.334;2023-04-19T07:14:44;15.50;55.10
19060;DHT22;9663;48.996;8.334;2023-04-19T07:17:09;15.60;55.20
19060;DHT22;9663;48.996;8.334;2023-04-19T07:19:35;15.70;55.40
19060;DHT22;9663;48.996;8.334;2023-04-19T07:22:01;15.80;55.40
19060;DHT22;9663;48.996;8.334;2023-04-19T07:24:27;15.70;55.30
19060;DHT22;9663;48.996;8.334;2023-04-19T07:26:54;15.80;55.10
19060;DHT22;9663;48.996;8.334;2023-04-19T07:29:20;16.60;55.20
19060;DHT22;9663;48.996;8.334;2023-04-19T07:31:46;16.10;54.80
19060;DHT22;9663;48.996;8.334;2023-04-19T07:34:12;16.00;54.70
19060;DHT22;9663;48.996;8.334;2023-04-19T07:36:39;16.40;54.80
19060;DHT22;9663;48.996;8.334;2023-04-19T07:39:04;16.00;54.70
19060;DHT22;9663;48.996;8.334;2023-04-19T07:41:33;16.10;54.80
19060;DHT22;9663;48.996;8.334;2023-04-19T07:43:59;16.10;54.80
19060;DHT22;9663;48.996;8.334;2023-04-19T07:46:24;17.30;55.40
19060;DHT22;9663;48.996;8.334;2023-04-19T07:48:50;16.10;54.80
19060;DHT22;9663;48.996;8.334;2023-04-19T07:51:16;16.20;54.80
19060;DHT22;9663;48.996;8.334;2023-04-19T07:53:42;16.30;54.60
19060;DHT22;9663;48.996;8.334;2023-04-19T07:56:09;16.30;54.50
19060;DHT22;9663;48.996;8.334;2023-04-19T07:58:36;16.20;54.60
19060;DHT22;9663;48.996;8.334;2023-04-19T08:01:04;17.70;55.40
19060;DHT22;9663;48.996;8.334;2023-04-19T08:03:31;16.40;54.70
19060;DHT22;9663;48.996;8.334;2023-04-19T08:06:00;16.60;54.80
19060;DHT22;9663;48.996;8.334;2023-04-19T08:08:27;16.70;54.80
19060;DHT22;9663;48.996;8.334;2023-04-19T08:10:53;16.70;54.90
19060;DHT22;9663;48.996;8.334;2023-04-19T08:13:21;16.90;54.80
19060;DHT22;9663;48.996;8.334;2023-04-19T08:15:47;17.10;54.70
19060;DHT22;9663;48.996;8.334;2023-04-19T08:18:13;17.20;54.60
19060;DHT22;9663;48.996;8.334;2023-04-19T08:20:39;18.20;54.70
19060;DHT22;9663;48.996;8.334;2023-04-19T08:23:07;16.10;53.50
19060;DHT22;9663;48.996;8.334;2023-04-19T08:25:33;17.50;53.90
19060;DHT22;9663;48.996;8.334;2023-04-19T08:28:00;17.60;53.80
19060;DHT22;9663;48.996;8.334;2023-04-19T08:30:26;17.60;53.80
19060;DHT22;9663;48.996;8.334;2023-04-19T08:32:51;17.70;54.00
19060;DHT22;9663;48.996;8.334;2023-04-19T08:35:17;17.60;53.90
19060;DHT22;9663;48.996;8.334;2023-04-19T08:37:43;19.00;54.40
19060;DHT22;9663;48.996;8.334;2023-04-19T08:40:09;18.00;53.90
19060;DHT22;9663;48.996;8.334;2023-04-19T08:42:35;18.10;53.80
19060;DHT22;9663;48.996;8.334;2023-04-19T08:45:02;18.30;53.50
19060;DHT22;9663;48.996;8.334;2023-04-19T08:47:33;18.30;53.00
19060;DHT22;9663;48.996;8.334;2023-04-19T08:50:02;18.40;53.00
19060;DHT22;9663;48.996;8.334;2023-04-19T08:52:29;18.50;53.20
19060;DHT22;9663;48.996;8.334;2023-04-19T08:55:02;18.20;52.60
19060;DHT22;9663;48.996;8.334;2023-04-19T08:57:30;18.40;52.50
19060;DHT22;9663;48.996;8.334;2023-04-19T08:59:58;19.20;52.80
19060;DHT22;9663;48.996;8.334;2023-04-19T09:02:25;18.70;52.50
19060;DHT22;9663;48.996;8.334;2023-04-19T09:04:51;18.70;52.30
19060;DHT22;9663;48.996;8.334;2023-04-19T09:07:24;20.20;52.90
19060;DHT22;9663;48.996;8.334;2023-04-19T09:10:08;19.30;52.10
19060;DHT22;9663;48.996;8.334;2023-04-19T09:12:36;18.50;51.40
19060;DHT22;9663;48.996;8.334;2023-04-19T09:15:05;18.30;51.70
19060;DHT22;9663;48.996;8.334;2023-04-19T09:17:39;19.30;52.40
19060;DHT22;9663;48.996;8.334;2023-04-19T09:20:06;19.20;52.40
19060;DHT22;9663;48.996;8.334;2023-04-19T09:22:32;19.40;52.80
19060;DHT22;9663;48.996;8.334;2023-04-19T09:24:58;18.10;52.30
19060;DHT22;9663;48.996;8.334;2023-04-19T09:27:33;18.10;52.30
19060;DHT22;9663;48.996;8.334;2023-04-19T09:30:02;18.00;52.10
19060;DHT22;9663;48.996;8.334;2023-04-19T09:32:45;18.00;52.30
19060;DHT22;9663;48.996;8.334;2023-04-19T09:35:12;18.00;52.10
19060;DHT22;9663;48.996;8.334;2023-04-19T09:37:37;18.00;52.30
19060;DHT22;9663;48.996;8.334;2023-04-19T09:40:35;18.80;52.70
19060;DHT22;9663;48.996;8.334;2023-04-19T09:43:02;17.90;52.00
19060;DHT22;9663;48.996;8.334;2023-04-19T09:45:41;17.80;52.20
19060;DHT22;9663;48.996;8.334;2023-04-19T09:48:10;18.70;52.60
19060;DHT22;9663;48.996;8.334;2023-04-19T09:50:53;17.60;52.40
19060;DHT22;9663;48.996;8.334;2023-04-19T09:53:21;17.80;52.50
19060;DHT22;9663;48.996;8.334;2023-04-19T09:55:47;17.70;52.70
19060;DHT22;9663;48.996;8.334;2023-04-19T09:58:17;17.80;52.80
19060;DHT22;9663;48.996;8.334;2023-04-19T10:00:44;17.80;52.70
19060;DHT22;9663;48.996;8.334;2023-04-19T10:03:15;16.90;52.30
19060;DHT22;9663;48.996;8.334;2023-04-19T10:05:43;17.80;52.70
19060;DHT22;9663;48.996;8.334;2023-04-19T10:08:11;18.10;52.70
19060;DHT22;9663;48.996;8.334;2023-04-19T10:10:41;17.80;52.50
19060;DHT22;9663;48.996;8.334;2023-04-19T10:13:12;17.10;52.20
19060;DHT22;9663;48.996;8.334;2023-04-19T10:15:43;17.40;52.30
19060;DHT22;9663;48.996;8.334;2023-04-19T10:18:09;17.80;52.50
19060;DHT22;9663;48.996;8.334;2023-04-19T10:20:45;17.80;52.50
19060;DHT22;9663;48.996;8.334;2023-04-19T10:23:16;17.00;52.00
19060;DHT22;9663;48.996;8.334;2023-04-19T10:25:47;17.70;52.40
19060;DHT22;9663;48.996;8.334;2023-04-19T10:28:16;17.80;52.40
19060;DHT22;9663;48.996;8.334;2023-04-19T10:30:59;17.60;52.50
19060;DHT22;9663;48.996;8.334;2023-04-19T10:33:28;17.60;52.40
19060;DHT22;9663;48.996;8.334;2023-04-19T10:35:57;18.00;52.80
19060;DHT22;9663;48.996;8.334;2023-04-19T10:41:18;18.30;52.30
19060;DHT22;9663;48.996;8.334;2023-04-19T10:48:53;18.60;52.50
19060;DHT22;9663;48.996;8.334;2023-04-19T10:51:27;18.40;52.10
19060;DHT22;9663;48.996;8.334;2023-04-19T10:53:58;19.20;52.30
19060;DHT22;9663;48.996;8.334;2023-04-19T11:01:32;19.20;52.00
19060;DHT22;9663;48.996;8.334;2023-04-19T11:04:11;18.80;51.70
19060;DHT22;9663;48.996;8.334;2023-04-19T11:12:09;19.30;51.80
19060;DHT22;9663;48.996;8.334;2023-04-19T11:14:49;18.70;50.80
19060;DHT22;9663;48.996;8.334;2023-04-19T11:17:22;19.30;51.10
19060;DHT22;9663;48.996;8.334;2023-04-19T11:19:52;19.20;51.00
19060;DHT22;9663;48.996;8.334;2023-04-19T11:25:04;19.10;51.10
19060;DHT22;9663;48.996;8.334;2023-04-19T11:27:32;19.10;51.20
19060;DHT22;9663;48.996;8.334;2023-04-19T11:30:05;19.10;51.20
19060;DHT22;9663;48.996;8.334;2023-04-19T11:32:49;19.10;51.10
19060;DHT22;9663;48.996;8.334;2023-04-19T11:35:20;17.50;50.30
19060;DHT22;9663;48.996;8.334;2023-04-19T11:37:47;20.60;51.80
19060;DHT22;9663;48.996;8.334;2023-04-19T11:40:14;19.00;51.10
19060;DHT22;9663;48.996;8.334;2023-04-19T11:42:41;18.90;51.10
19060;DHT22;9663;48.996;8.334;2023-04-19T11:45:09;18.90;51.20
19060;DHT22;9663;48.996;8.334;2023-04-19T11:47:48;18.80;51.00
19060;DHT22;9663;48.996;8.334;2023-04-19T11:50:35;19.50;51.20
19060;DHT22;9663;48.996;8.334;2023-04-19T11:53:20;18.60;50.80
19060;DHT22;9663;48.996;8.334;2023-04-19T11:58:40;18.20;51.00
19060;DHT22;9663;48.996;8.334;2023-04-19T12:01:14;18.40;51.20
19060;DHT22;9663;48.996;8.334;2023-04-19T12:03:47;18.00;51.30
19060;DHT22;9663;48.996;8.334;2023-04-19T12:06:16;17.80;51.20
19060;DHT22;9663;48.996;8.334;2023-04-19T12:08:48;17.80;51.50
19060;DHT22;9663;48.996;8.334;2023-04-19T12:11:15;17.90;51.70
19060;DHT22;9663;48.996;8.334;2023-04-19T12:13:46;17.40;51.80
19060;DHT22;9663;48.996;8.334;2023-04-19T12:16:13;17.40;52.00
19060;DHT22;9663;48.996;8.334;2023-04-19T12:18:46;16.60;51.80
19060;DHT22;9663;48.996;8.334;2023-04-19T12:21:28;17.20;52.40
19060;DHT22;9663;48.996;8.334;2023-04-19T12:23:57;17.40;52.80
19060;DHT22;9663;48.996;8.334;2023-04-19T12:26:26;17.00;52.50
19060;DHT22;9663;48.996;8.334;2023-04-19T12:28:53;16.90;52.60
19060;DHT22;9663;48.996;8.334;2023-04-19T12:31:20;16.90;52.80
19060;DHT22;9663;48.996;8.334;2023-04-19T12:33:46;18.00;53.40
19060;DHT22;9663;48.996;8.334;2023-04-19T12:36:12;16.60;52.90
19060;DHT22;9663;48.996;8.334;2023-04-19T12:38:39;16.60;53.10
19060;DHT22;9663;48.996;8.334;2023-04-19T12:41:05;16.50;53.20
19060;DHT22;9663;48.996;8.334;2023-04-19T12:43:31;17.80;54.10
19060;DHT22;9663;48.996;8.334;2023-04-19T12:45:58;16.40;53.50
19060;DHT22;9663;48.996;8.334;2023-04-19T12:48:24;16.30;53.50
19060;DHT22;9663;48.996;8.334;2023-04-19T12:50:51;16.30;53.60
19060;DHT22;9663;48.996;8.334;2023-04-19T12:53:17;16.20;53.50
19060;DHT22;9663;48.996;8.334;2023-04-19T12:55:43;16.20;53.70
19060;DHT22;9663;48.996;8.334;2023-04-19T12:58:12;16.90;54.00
19060;DHT22;9663;48.996;8.334;2023-04-19T13:00:39;16.10;53.60
19060;DHT22;9663;48.996;8.334;2023-04-19T13:03:04;15.50;53.30
19060;DHT22;9663;48.996;8.334;2023-04-19T13:05:30;16.10;53.70
19060;DHT22;9663;48.996;8.334;2023-04-19T13:07:56;16.10;53.70
19060;DHT22;9663;48.996;8.334;2023-04-19T13:10:22;16.10;53.70
19060;DHT22;9663;48.996;8.334;2023-04-19T13:12:47;15.70;53.60
19060;DHT22;9663;48.996;8.334;2023-04-19T13:15:13;16.00;53.80
19060;DHT22;9663;48.996;8.334;2023-04-19T13:17:39;16.00;53.80
19060;DHT22;9663;48.996;8.334;2023-04-19T13:20:05;16.00;53.90
19060;DHT22;9663;48.996;8.334;2023-04-19T13:22:31;16.00;54.20
19060;DHT22;9663;48.996;8.334;2023-04-19T13:24:57;16.00;54.20
19060;DHT22;9663;48.996;8.334;2023-04-19T13:27:23;15.90;54.10
19060;DHT22;9663;48.996;8.334;2023-04-19T13:29:49;15.20;53.90
19060;DHT22;9663;48.996;8.334;2023-04-19T13:32:14;16.00;54.20
19060;DHT22;9663;48.996;8.334;2023-04-19T13:34:40;16.00;54.40
19060;DHT22;9663;48.996;8.334;2023-04-19T13:37:06;15.90;54.30
19060;DHT22;9663;48.996;8.334;2023-04-19T13:39:33;15.90;54.40
19060;DHT22;9663;48.996;8.334;2023-04-19T13:41:59;15.90;54.50
19060;DHT22;9663;48.996;8.334;2023-04-19T13:44:26;15.00;54.10
19060;DHT22;9663;48.996;8.334;2023-04-19T13:46:52;15.80;54.70
19060;DHT22;9663;48.996;8.334;2023-04-19T13:49:18;15.80;54.90
19060;DHT22;9663;48.996;8.334;2023-04-19T13:51:44;15.70;55.00
19060;DHT22;9663;48.996;8.334;2023-04-19T13:54:10;15.80;55.00
19060;DHT22;9663;48.996;8.334;2023-04-19T13:56:35;15.80;55.10
19060;DHT22;9663;48.996;8.334;2023-04-19T13:59:01;15.80;55.20
19060;DHT22;9663;48.996;8.334;2023-04-19T14:01:27;15.80;55.20
19060;DHT22;9663;48.996;8.334;2023-04-19T14:03:53;15.70;55.40
19060;DHT22;9663;48.996;8.334;2023-04-19T14:06:18;15.70;55.30
19060;DHT22;9663;48.996;8.334;2023-04-19T14:08:44;15.90;55.60
19060;DHT22;9663;48.996;8.334;2023-04-19T14:11:10;15.70;55.50
19060;DHT22;9663;48.996;8.334;2023-04-19T14:13:36;15.80;55.70
19060;DHT22;9663;48.996;8.334;2023-04-19T14:16:02;15.90;55.70
19060;DHT22;9663;48.996;8.334;2023-04-19T14:18:28;16.50;56.10
19060;DHT22;9663;48.996;8.334;2023-04-19T14:20:54;16.10;55.90
19060;DHT22;9663;48.996;8.334;2023-04-19T14:23:19;16.20;55.90
19060;DHT22;9663;48.996;8.334;2023-04-19T14:25:45;18.00;56.60
19060;DHT22;9663;48.996;8.334;2023-04-19T14:28:11;15.50;55.30
19060;DHT22;9663;48.996;8.334;2023-04-19T14:30:38;16.50;55.70
19060;DHT22;9663;48.996;8.334;2023-04-19T14:33:04;16.60;55.70
19060;DHT22;9663;48.996;8.334;2023-04-19T14:35:30;16.70;55.70
19060;DHT22;9663;48.996;8.334;2023-04-19T14:37:55;16.80;55.70
19060;DHT22;9663;48.996;8.334;2023-04-19T14:40:22;17.00;56.40
19060;DHT22;9663;48.996;8.334;2023-04-19T14:42:48;17.10;55.80
19060;DHT22;9663;48.996;8.334;2023-04-19T14:45:14;17.40;55.90
19060;DHT22;9663;48.996;8.334;2023-04-19T14:47:39;17.70;55.70
19060;DHT22;9663;48.996;8.334;2023-04-19T14:50:05;17.90;55.40
19060;DHT22;9663;48.996;8.334;2023-04-19T14:52:31;18.10;55.00
19060;DHT22;9663;48.996;8.334;2023-04-19T14:54:57;18.30;54.80
19060;DHT22;9663;48.996;8.334;2023-04-19T14:57:25;18.40;54.60
19060;DHT22;9663;48.996;8.334;2023-04-19T14:59:55;18.50;54.50
19060;DHT22;9663;48.996;8.334;2023-04-19T15:02:23;18.70;54.60
19060;DHT22;9663;48.996;8.334;2023-04-19T15:04:49;19.00;55.30
19060;DHT22;9663;48.996;8.334;2023-04-19T15:07:15;19.50;56.00
19060;DHT22;9663;48.996;8.334;2023-04-19T15:09:40;20.30;55.70
19060;DHT22;9663;48.996;8.334;2023-04-19T15:12:06;21.70;55.80
19060;DHT22;9663;48.996;8.334;2023-04-19T15:14:32;21.70;55.00
19060;DHT22;9663;48.996;8.334;2023-04-19T15:16:58;22.50;54.90
19060;DHT22;9663;48.996;8.334;2023-04-19T15:19:24;23.20;54.40
19060;DHT22;9663;48.996;8.334;2023-04-19T15:21:49;23.70;53.40
19060;DHT22;9663;48.996;8.334;2023-04-19T15:24:15;24.70;52.70
19060;DHT22;9663;48.996;8.334;2023-04-19T15:26:40;25.20;51.70
19060;DHT22;9663;48.996;8.334;2023-04-19T15:29:06;25.60;50.70
19060;DHT22;9663;48.996;8.334;2023-04-19T15:31:32;25.90;49.70
19060;DHT22;9663;48.996;8.334;2023-04-19T15:34:02;25.90;48.10
19060;DHT22;9663;48.996;8.334;2023-04-19T15:36:28;25.70;47.10
19060;DHT22;9663;48.996;8.334;2023-04-19T15:38:54;25.40;47.10
19060;DHT22;9663;48.996;8.334;2023-04-19T15:41:19;25.10;47.40
19060;DHT22;9663;48.996;8.334;2023-04-19T15:43:45;24.90;48.00
19060;DHT22;9663;48.996;8.334;2023-04-19T15:46:11;25.60;49.20
19060;DHT22;9663;48.996;8.334;2023-04-19T15:48:38;25.30;49.20
19060;DHT22;9663;48.996;8.334;2023-04-19T15:51:04;25.60;49.00
19060;DHT22;9663;48.996;8.334;2023-04-19T15:53:30;25.90;48.70
19060;DHT22;9663;48.996;8.334;2023-04-19T15:55:56;26.60;48.20
19060;DHT22;9663;48.996;8.334;2023-04-19T15:58:22;26.40;47.50
19060;DHT22;9663;48.996;8.334;2023-04-19T16:00:48;26.70;47.30
19060;DHT22;9663;48.996;8.334;2023-04-19T16:03:14;26.60;47.20
19060;DHT22;9663;48.996;8.334;2023-04-19T16:05:40;26.80;47.10
19060;DHT22;9663;48.996;8.334;2023-04-19T16:08:07;27.60;47.60